juil
17

GRANDS PRIX DE LETTONIE MX1 & MX2 : INFOS ET RÉSULTATS

EMX 2 – Time Practice – Classification
Pos Nr Rider Nat. Fed. Bike Bestlaptime in lap Diff. First Diff. Prev. Tot. Laps Speed

1 221 Rätsep, Priit EST EMF Honda 1:50.180 3 0:00.000 0:00.000 11 50.318
2 51 Getteman, Jens BEL FMB Yamaha 1:51.504 5 0:01.324 0:01.324 10 49.72
3 11 Bastemeijer, Donny NED KNMV Honda 1:51.625 10 0:01.445 0:00.121 13 49.666
4 423 Gercar, Klemen SLO AMZS KTM 1:51.636 5 0:01.456 0:00.011 11 49.661
5 461 Febvre, Romain FRA FFM KTM 1:51.732 5 0:01.552 0:00.096 11 49.619
6 21 Fors, Kevin BEL FMB KTM 1:51.989 6 0:01.809 0:00.257 10 49.505
7 336 Olsen, Stefan Kjer DEN DMU Yamaha 1:52.009 10 0:01.829 0:00.020 13 49.496
8 103 Vandueren, Kenny BEL FMB KTM 1:52.423 5 0:02.243 0:00.414 13 49.314
9 151 Desprey, Maxime FRA FFM Yamaha 1:52.448 3 0:02.268 0:00.025 11 49.303
10 64 Bengtsson, Filip SWE SVEMO KTM 1:52.498 7 0:02.318 0:00.050 12 49.281
11 300 Tonkov, Aleksandr RUS FMI Yamaha 1:52.522 6 0:02.342 0:00.024 12 49.27
12 225 Lefrancois, Charles FRA FFM Honda 1:52.537 4 0:02.357 0:00.015 13 49.264
13 262 Lonka, Lukasz POL PZM Honda 1:52.548 5 0:02.368 0:00.011 12 49.259
14 951 Aubin, Arnaud FRA FFM KTM 1:53.251 11 0:03.071 0:00.703 13 48.953
15 149 Ullrich, Dennis GER DMSB Honda 1:53.313 4 0:03.133 0:00.062 10 48.926
16 250 Fura, Richard FRA FFM Yamaha 1:53.349 6 0:03.169 0:00.036 11 48.911
17 89 Bogers, Brian NED KNMV KTM 1:53.664 7 0:03.484 0:00.315 10 48.775
18 53 Jousi, Atte FIN SML Yamaha 1:53.747 5 0:03.567 0:00.083 14 48.74
19 17 Bertuzzo, Pierfilippo ITA FMI Yamaha 1:53.842 1 0:03.662 0:00.095 11 48.699
20 14 Poppe, Jens BEL FMB Yamaha 1:53.963 3 0:03.783 0:00.121 13 48.647
21 81 Van Wezel, Michael NED KNMV KTM 1:54.253 7 0:04.073 0:00.290 13 48.524
22 52 Stigell, Henric FIN SML Kawasaki 1:54.744 7 0:04.564 0:00.491 13 48.316
23 724 Cambre, Jilani BEL FMB Kawasaki 1:54.918 3 0:04.738 0:00.174 11 48.243
24 140 Van Herpen, Sander NED KNMV Honda 1:54.975 2 0:04.795 0:00.057 13 48.219
25 37 Hjortmarker, Eddie SWE SVEMO Honda 1:55.081 6 0:04.901 0:00.106 11 48.175
26 50 Oliva Galera, Christian ESP RFME Yamaha 1:55.146 3 0:04.966 0:00.065 13 48.148
27 241 Park, Andre EST EMF Honda 1:55.177 2 0:04.997 0:00.031 13 48.135
28 108 Auberson, Killian SUI FMS KTM 1:55.382 5 0:05.202 0:00.205 12 48.049
29 22 Gultvedt, Andreas NOR NMF KTM 1:55.565 10 0:05.385 0:00.183 13 47.973
30 66 Tombs, Lewis GBR ACU Honda 1:55.703 3 0:05.523 0:00.138 12 47.916
31 228 Jorgensen, Rasmus DEN DMU Suzuki 1:56.039 2 0:05.859 0:00.336 11 47.777
32 411 Kahro, Erki EST EMF Honda 1:56.219 4 0:06.039 0:00.180 14 47.703
33 45 Oinonen, Miika FIN SML KTM 1:56.365 5 0:06.185 0:00.146 12 47.643
34 155 Karklins, Janis LAT LAMSF KTM 1:56.379 2 0:06.199 0:00.014 8 47.637
35 161 Manninen, Aki FIN SML KTM 1:56.656 7 0:06.476 0:00.277 12 47.524
36 62 Lusbo, Andero EST EMF Kawasaki 1:56.689 10 0:06.509 0:00.033 13 47.511
37 198 Aleksejevs, Vairis LAT LAMSF Kawasaki 1:56.728 2 0:06.548 0:00.039 11 47.495
38 56 Talu, Elary EST EMF KTM 1:57.054 7 0:06.874 0:00.326 13 47.363
39 491 Mataro Vilar, Francesc ESP RFME Kawasaki 1:57.249 6 0:07.069 0:00.195 13 47.284
40 757 Mank, Arkadiusz POL PZM Honda 1:57.512 9 0:07.332 0:00.263 11 47.178
41 76 Polski, Marneth EST EMF Kawasaki 1:57.998 5 0:07.818 0:00.486 12 46.984
42 921 Valentin Lasheras, Ander ESP RFME Yamaha 1:58.167 5 0:07.987 0:00.169 11 46.917

EMX2 – Race 1 – Classification
Pos Nr Rider Nat. Fed. Bike Time laps Diff. First Diff. Prev. Bestlaptime in lap Speed

1 221 Rätsep, Priit EST EMF Honda 30:09.274 15 0:00.000 0:00.000 1:52.185 3 49.418
2 336 Olsen, Stefan Kjer DEN DMU Yamaha 30:25.340 15 0:16.066 0:16.066 1:55.378 3 48.051
3 461 Febvre, Romain FRA FFM KTM 30:32.198 15 0:22.924 0:06.858 1:52.902 2 49.105
4 103 Vandueren, Kenny BEL FMB KTM 30:36.071 15 0:26.797 0:03.873 1:55.308 3 48.08
5 951 Aubin, Arnaud FRA FFM KTM 30:37.274 15 0:28.000 0:01.203 1:54.640 2 48.36
6 64 Bengtsson, Filip SWE SVEMO KTM 30:39.252 15 0:29.978 0:01.978 1:54.868 3 48.264
7 51 Getteman, Jens BEL FMB Yamaha 30:42.850 15 0:33.576 0:03.598 1:55.145 3 48.148
8 21 Fors, Kevin BEL FMB KTM 30:47.975 15 0:38.701 0:05.125 1:55.950 4 47.814
9 151 Desprey, Maxime FRA FFM Yamaha 30:48.101 15 0:38.827 0:00.126 1:56.552 4 47.567
10 11 Bastemeijer, Donny NED KNMV Honda 30:49.247 15 0:39.973 0:01.146 1:56.404 5 47.627
11 149 Ullrich, Dennis GER DMSB Honda 30:50.170 15 0:40.896 0:00.923 1:55.128 2 48.155
12 225 Lefrancois, Charles FRA FFM Honda 30:51.515 15 0:42.241 0:01.345 1:56.530 2 47.576
13 423 Gercar, Klemen SLO AMZS KTM 30:54.966 15 0:45.692 0:03.451 1:55.711 3 47.912
14 81 Van Wezel, Michael NED KNMV KTM 30:55.341 15 0:46.067 0:00.375 1:57.216 6 47.297
15 250 Fura, Richard FRA FFM Yamaha 31:02.375 15 0:53.101 0:07.034 1:56.468 2 47.601
16 300 Tonkov, Aleksandr RUS FMI Yamaha 31:06.988 15 0:57.714 0:04.613 1:56.893 8 47.428
17 262 Lonka, Lukasz POL PZM Honda 31:07.302 15 0:58.028 0:00.314 1:56.847 2 47.447
18 53 Jousi, Atte FIN SML Yamaha 31:09.824 15 1:00.550 0:02.522 1:57.126 2 47.334
19 37 Hjortmarker, Eddie SWE SVEMO Honda 31:19.700 15 1:10.426 0:09.876 1:57.891 4 47.026
20 50 Oliva Galera, Christian ESP RFME Yamaha 31:20.123 15 1:10.849 0:00.423 1:57.764 3 47.077..

EMX 2 – Race 2 – Classification
Pos Nr Rider Nat. Fed. Bike Time laps Diff. First Diff. Prev. Bestlaptime in lap Speed

1 221 Rätsep, Priit EST EMF Honda 29:15.143 14 0:00.000 0:00.000 1:57.944 5 47.005
2 336 Olsen, Stefan Kjer DEN DMU Yamaha 29:22.021 14 0:06.878 0:06.878 1:57.611 4 47.138
3 461 Febvre, Romain FRA FFM KTM 29:35.668 14 0:20.525 0:13.647 1:59.762 4 46.292
4 51 Getteman, Jens BEL FMB Yamaha 29:39.550 14 0:24.407 0:03.882 1:58.897 7 46.629
5 64 Bengtsson, Filip SWE SVEMO KTM 29:41.797 14 0:26.654 0:02.247 1:59.640 8 46.339
6 21 Fors, Kevin BEL FMB KTM 29:43.606 14 0:28.463 0:01.809 1:59.869 1 46.25
7 149 Ullrich, Dennis GER DMSB Honda 29:54.375 14 0:39.232 0:10.769 1:59.011 6 46.584
8 151 Desprey, Maxime FRA FFM Yamaha 29:58.331 14 0:43.188 0:03.956 1:59.925 1 46.229
9 225 Lefrancois, Charles FRA FFM Honda 29:59.592 14 0:44.449 0:01.261 2:01.631 3 45.58
10 17 Bertuzzo, Pierfilippo ITA FMI Yamaha 30:00.715 14 0:45.572 0:01.123 2:00.750 6 45.913
11 11 Bastemeijer, Donny NED KNMV Honda 30:04.413 14 0:49.270 0:03.698 2:02.040 1 45.428
12 250 Fura, Richard FRA FFM Yamaha 30:08.927 14 0:53.784 0:04.514 2:01.861 3 45.494
13 53 Jousi, Atte FIN SML Yamaha 30:09.486 14 0:54.343 0:00.559 2:01.710 13 45.551
14 262 Lonka, Lukasz POL PZM Honda 30:11.387 14 0:56.244 0:01.901 2:01.872 6 45.49
15 951 Aubin, Arnaud FRA FFM KTM 30:19.245 14 1:04.102 0:07.858 2:02.361 7 45.309
16 81 Van Wezel, Michael NED KNMV KTM 30:26.516 14 1:11.373 0:07.271 2:01.587 4 45.597
17 50 Oliva Galera, Christian ESP RFME Yamaha 30:27.385 14 1:12.242 0:00.869 2:03.452 10 44.908
18 14 Poppe, Jens BEL FMB Yamaha 30:30.248 14 1:15.105 0:02.863 2:02.410 2 45.29
19 66 Tombs, Lewis GBR ACU Honda 30:33.007 14 1:17.864 0:02.759 2:02.453 3 45.275
20 491 Mataro Vilar, Francesc ESP RFME Kawasaki 30:33.742 14 1:18.599 0:00.735 2:03.204 3 44.999..

EMX 2 – Overall Classification
Pos Nr Rider Nat. Fed. Bike Race 1 Race 2 Total

1 221 Rätsep, Priit EST EMF Honda 25 25 50
2 336 Olsen, Stefan Kjer DEN DMU Yamaha 22 22 44
3 461 Febvre, Romain FRA FFM KTM 20 20 40
4 51 Getteman, Jens BEL FMB Yamaha 14 18 32
5 64 Bengtsson, Filip SWE SVEMO KTM 15 16 31
6 21 Fors, Kevin BEL FMB KTM 13 15 28
7 151 Desprey, Maxime FRA FFM Yamaha 12 13 25
8 149 Ullrich, Dennis GER DMSB Honda 10 14 24
9 951 Aubin, Arnaud FRA FFM KTM 16 6 22
10 225 Lefrancois, Charles FRA FFM Honda 9 12 21

11 11 Bastemeijer, Donny NED KNMV Honda 11 10 21
12 103 Vandueren, Kenny BEL FMB KTM 18 0 18
13 250 Fura, Richard FRA FFM Yamaha 6 9 15
14 81 Van Wezel, Michael NED KNMV KTM 7 5 12
15 17 Bertuzzo, Pierfilippo ITA FMI Yamaha 0 11 11
16 53 Jousi, Atte FIN SML Yamaha 3 8 11
17 262 Lonka, Lukasz POL PZM Honda 4 7 11
18 423 Gercar, Klemen SLO AMZS KTM 8 0 8
19 50 Oliva Galera, Christian ESP RFME Yamaha 1 4 5
20 300 Tonkov, Aleksandr RUS FMI Yamaha 5 0 5..

EMX 2 – Championship Classification
Pos Nr Rider Nat. Total NED FRA POR ESP LAT BEL EUR
1 461 Febvre, Romain FRA 163 15-9 25-22 18-22 6-6 20-20 - - - -
2 225 Lefrancois, C. FRA 151 13-10 20-13 20-20 16-18 9-12 - - - -
3 122 Ferrandis, D. FRA 125 0-0 0-25 25-25 25-25 - - - - - -

4 51 Getteman, Jens BEL 122 20-25 2-7 22-3 0-11 14-18 - - - -
5 336 Olsen, S. DEN 119 0-14 5-10 15-8 9-14 22-22 - - - -
6 221 Rätsep, Priit EST 102 1-0 1-8 14-15 13-0 25-25 - - - -
7 11 Bastemeijer, D. NED 102 12-4 0-0 16-14 15-20 11-10 - - - -
8 21 Fors, Kevin BEL 101 6-16 14-9 1-11 0-16 13-15 - - - -
9 64 Bengtsson, F. SWE 96 2-12 0-0 0-7 22-22 15-16 - - - -
10 151 Desprey, M. FRA 95 11-18 18-0 6-9 0-8 12-13 - - - -
11 149 Ullrich, D. GER 93 5-2 15-12 11-16 7-1 10-14 - - - -
12 300 Tonkov, A. RUS 87 22-20 22-18 - - - - 5-0 - - - -
13 951 Aubin, Arnaud FRA 78 0-0 6-20 0-0 18-12 16-6 - - - -
14 20 Irt, Jernej SLO 73 0-8 16-0 13-13 10-13 - - - - - -
15 81 Van Wezel, M. NED 69 25-22 - - 0-2 8-0 7-5 - - - -
16 262 Lonka, Lukasz POL 58 10-11 0-0 0-4 12-10 4-7 - - - -
17 12 Heibye, Even NOR 53 14-15 0-0 12-12 0-0 - - - - - -
18 192 Mercandino, M. ITA 44 16-5 10-4 9-0 - - - - - - - -
19 103 Vandueren, K. BEL 43 0-0 0-3 10-0 3-9 18-0 - - - -
20 250 Fura, Richard FRA 41 0-0 - - - - 11-15 6-9 - - - ..

MX1 – Pre-Qualifying Practice – Classification
Pos Nr Rider Nat. Fed. Bike Bestlaptime in lap Diff. First Diff. Prev. Tot. Laps Speed

1 222 Cairoli, Antonio ITA FMI KTM 1:47.700 6 0:00.000 0:00.000 11 51.476
2 11 Ramon, Steve BEL FMB Suzuki 1:48.056 7 0:00.356 0:00.356 8 51.307
3 777 Bobryshev, Evgeny RUS MFR Honda 1:48.223 2 0:00.523 0:00.167 8 51.228
4 39 Guarneri, Davide ITA FMI Kawasaki 1:48.403 6 0:00.703 0:00.180 7 51.142
5 2 Nagl, Maximilian GER DMSB KTM 1:48.823 6 0:01.123 0:00.420 8 50.945
6 25 Desalle, Clement BEL FMB Suzuki 1:48.854 5 0:01.154 0:00.031 9 50.931
7 999 Goncalves, Rui POR FMP Honda 1:49.099 11 0:01.399 0:00.245 13 50.816
8 183 Frossard, Steven FRA FFM Yamaha 1:49.261 7 0:01.561 0:00.162 11 50.741
9 121 Boog, Xavier FRA FFM Kawasaki 1:49.609 6 0:01.909 0:00.348 11 50.58

10 19 Philippaerts, David ITA FMI Yamaha 1:49.729 7 0:02.029 0:00.120 12 50.524
11 6 Leok, Tanel EST EMF TM 1:49.920 13 0:02.220 0:00.191 13 50.437
12 9 de Dycker, Ken BEL FMB Honda 1:50.188 4 0:02.488 0:00.268 9 50.314
13 24 Simpson, Shaun GBR ACU Honda 1:50.409 5 0:02.709 0:00.221 9 50.213
14 7 Barragan, Jonathan ESP RFME Kawasaki 1:50.417 4 0:02.717 0:00.008 11 50.21
15 20 Aranda, Gregory FRA FFM Kawasaki 1:50.697 3 0:02.997 0:00.280 12 50.083
16 14 de Reuver, Marc NED KNMV Yamaha 1:51.331 3 0:03.631 0:00.634 11 49.797
17 10 Boissiere, Anthony FRA FFM Yamaha 1:51.447 7 0:03.747 0:00.116 9 49.746
18 287 Schiffer, Marcus GER DMSB Suzuki 1:51.459 4 0:03.759 0:00.012 11 49.74
19 156 Freibergs, Lauris LAT LAMSF Honda 1:52.163 5 0:04.463 0:00.704 10 49.428
20 37 Krestinov, Gert EST EMF Kawasaki 1:52.257 2 0:04.557 0:00.094 10 49.387
21 22 Strijbos, Kevin BEL FMB Suzuki 1:52.487 9 0:04.787 0:00.230 11 49.286
22 115 Campano Jimenez, Carlos ESP RFME Yamaha 1:52.638 2 0:04.938 0:00.151 11 49.22
23 61 Brakke, Herjan NED KNMV Yamaha 1:53.152 9 0:05.452 0:00.514 11 48.996
24 74 Steinbergs, Ivo LAT LAMSF Kawasaki 1:53.313 6 0:05.613 0:00.161 9 48.926
25 198 Bucas, Vytautas LTU LMSF Honda 1:54.029 2 0:06.329 0:00.716 11 48.619
26 95 Justs, Augusts LAT LAMSF Honda 1:54.208 5 0:06.508 0:00.179 7 48.543
27 49 Schmidinger, Günter AUT OeAMTC Honda 1:54.455 8 0:06.755 0:00.247 11 48.438
28 97 Tyletski, Evgeni BLR LAMSF KTM 1:55.018 8 0:07.318 0:00.563 10 48.201
29 174 Kaurit, Ardo EST EMF KTM 1:55.446 4 0:07.746 0:00.428 10 48.022
30 127 Eriksson, Toni FIN SML Kawasaki 1:55.624 2 0:07.924 0:00.178 10 47.949
31 52 Walkner, Matthias AUT OeAMTC KTM 1:55.932 11 0:08.232 0:00.308 11 47.821
32 771 Gelazninkas, Arunas LTU LMSF Kawasaki 1:56.250 6 0:08.550 0:00.318 10 47.69
33 133 Apfelbaums, Niks LAT LAMSF Honda 1:56.370 4 0:08.670 0:00.120 11 47.641

MANCHE QUALIFICATIVE MX1

Holeshot de Desalle.. Chute de Leok et Philippaerts au départ, Bobryshev va aller à la faute dans la foulée un peu plus loin et repartira dans les derniers..

MX1 – Qualifying Race – Classification
Pos Nr Rider Nat. Fed. Bike Time laps Diff. First Diff. Prev. Bestlaptime in lap Speed

1 222 Cairoli, Antonio ITA FMI KTM 25:37.588 13 0:00.000 0:00.000 1:50.150 10 50.331
2 25 Desalle, Clement BEL FMB Suzuki 25:43.447 13 0:05.859 0:05.859 1:51.616 1 49.67
3 183 Frossard, Steven FRA FFM Yamaha 25:45.139 13 0:07.551 0:01.692 1:51.352 5 49.788
4 11 Ramon, Steve BEL FMB Suzuki 25:46.973 13 0:09.385 0:01.834 1:51.444 3 49.747
5 2 Nagl, Maximilian GER DMSB KTM 25:48.244 13 0:10.656 0:01.271 1:52.249 3 49.39
6 777 Bobryshev, Evgeny RUS MFR Honda 25:53.553 13 0:15.965 0:05.309 1:51.067 6 49.916
7 39 Guarneri, Davide ITA FMI Kawasaki 25:55.937 13 0:18.349 0:02.384 1:52.490 3 49.284
8 999 Goncalves, Rui POR FMP Honda 25:56.714 13 0:19.126 0:00.777 1:52.657 6 49.211
9 121 Boog, Xavier FRA FFM Kawasaki 26:06.022 13 0:28.434 0:09.308 1:52.901 8 49.105
10 9 de Dycker, Ken BEL FMB Honda 26:14.907 13 0:37.319 0:08.885 1:52.910 5 49.101
11 10 Boissiere, Anthony FRA FFM Yamaha 26:17.192 13 0:39.604 0:02.285 1:53.873 5 48.686
12 19 Philippaerts, David ITA FMI Yamaha 26:17.931 13 0:40.343 0:00.739 1:52.577 8 49.246
13 14 de Reuver, Marc NED KNMV Yamaha 26:31.651 13 0:54.063 0:13.720 1:54.325 7 48.493
14 7 Barragan, Jonathan ESP RFME Kawasaki 26:33.688 13 0:56.100 0:02.037 1:54.731 11 48.322
15 20 Aranda, Gregory FRA FFM Kawasaki 26:35.130 13 0:57.542 0:01.442 1:53.849 7 48.696
16 115 Campano Jimenez, Carlos ESP RFME Yamaha 26:36.467 13 0:58.879 0:01.337 1:54.374 4 48.473
17 6 Leok, Tanel EST EMF TM 26:36.580 13 0:58.992 0:00.113 1:53.279 6 48.941
18 22 Strijbos, Kevin BEL FMB Suzuki 26:50.885 13 1:13.297 0:14.305 1:54.745 3 48.316
19 74 Steinbergs, Ivo LAT LAMSF Kawasaki 26:52.907 13 1:15.319 0:02.022 1:55.681 3 47.925
20 156 Freibergs, Lauris LAT LAMSF Honda 26:53.774 13 1:16.186 0:00.867 1:56.371 4 47.641
21 37 Krestinov, Gert EST EMF Kawasaki 27:00.116 13 1:22.528 0:06.342 1:55.423 6 48.032
22 24 Simpson, Shaun GBR ACU Honda 27:12.078 13 1:34.490 0:11.962 1:54.400 3 48.462
23 49 Schmidinger, Günter AUT OeAMTC Honda 27:12.459 13 1:34.871 0:00.381 1:57.139 4 47.328
24 127 Eriksson, Toni FIN SML Kawasaki 27:30.030 13 1:52.442 0:17.571 1:58.604 9 46.744
25 174 Kaurit, Ardo EST EMF KTM 25:38.551 12 1 lap 1 lap 2:00.028 9 46.189
26 133 Apfelbaums, Niks LAT LAMSF Honda 25:43.361 12 1 lap 0:04.810 1:59.645 6 46.337
27 198 Bucas, Vytautas LTU LMSF Honda 25:47.070 12 1 lap 0:03.709 1:56.031 4 47.78
28 771 Gelazninkas, Arunas LTU LMSF Kawasaki 25:52.113 12 1 lap 0:05.043 2:00.496 2 46.01
29 97 Tyletski, Evgeni BLR LAMSF KTM 26:04.425 12 1 lap 0:12.312 1:58.707 4 46.703
30 52 Walkner, Matthias AUT OeAMTC KTM 26:07.776 12 1 lap 0:03.351 1:56.506 5 47.586
31 95 Justs, Augusts LAT LAMSF Honda 15:37.780 7 6 laps 5 laps 1:57.539 4 47.167
32 287 Schiffer, Marcus GER DMSB Suzuki 16:22.313 7 6 laps 0:44.533 1:54.894 2 48.253
33 61 Brakke, Herjan NED KNMV Yamaha 13:07.341 6 7 laps 1 lap 1:56.443 2 47.611

DIMANCHE – 1 ÈRE MANCHE MX1

Holeshot de Nagl.. Cairoli prend la tête de course de suite.. Bobryshev toujours très rapide devant.. Frossard passe Desalle à 22 mn de la fin de manche.. Chute de Clément Desalle alors qu’il tentait de dépasser Frossard à 9 mn de la fin.. Steven Frossard va passer le russe dans les derniers tours de cette manche et sera presque au contact direct d’Antonio Cairoli dans le tout dernier tour (!)..

MX1 – Grand Prix Race 1 – Classification
Pos Nr Rider Nat. Fed. Bike Time laps Diff. First Diff. Prev. Bestlaptime in lap Speed

1 222 Cairoli, Antonio ITA FMI KTM 39:16.295 20 0:00.000 0:00.000 1:52.186 3 49.418
2 183 Frossard, Steven FRA FFM Yamaha 39:16.642 20 0:00.347 0:00.347 1:53.048 6 49.041
3 777 Bobryshev, Evgeny RUS MFR Honda 39:19.445 20 0:03.150 0:02.803 1:52.583 2 49.244
4 2 Nagl, Maximilian GER DMSB KTM 39:20.903 20 0:04.608 0:01.458 1:52.642 5 49.218
5 19 Philippaerts, David ITA FMI Yamaha 39:42.141 20 0:25.846 0:21.238 1:52.674 9 49.204
6 9 de Dycker, Ken BEL FMB Honda 39:47.274 20 0:30.979 0:05.133 1:54.060 6 48.606
7 999 Goncalves, Rui POR FMP Honda 39:48.812 20 0:32.517 0:01.538 1:54.252 4 48.524
8 25 Desalle, Clement BEL FMB Suzuki 39:59.203 20 0:42.908 0:10.391 1:53.329 4 48.92
9 121 Boog, Xavier FRA FFM Kawasaki 40:07.448 20 0:51.153 0:08.245 1:55.196 3 48.127
10 11 Ramon, Steve BEL FMB Suzuki 40:07.850 20 0:51.555 0:00.402 1:54.674 6 48.346
11 39 Guarneri, Davide ITA FMI Kawasaki 40:11.819 20 0:55.524 0:03.969 1:54.772 10 48.304
12 6 Leok, Tanel EST EMF TM 40:12.365 20 0:56.070 0:00.546 1:54.905 8 48.249
13 10 Boissiere, Anthony FRA FFM Yamaha 40:37.247 20 1:20.952 0:24.882 1:55.494 7 48.002
14 20 Aranda, Gregory FRA FFM Kawasaki 40:47.715 20 1:31.420 0:10.468 1:57.373 8 47.234
15 24 Simpson, Shaun GBR ACU Honda 40:49.972 20 1:33.677 0:02.257 1:56.772 8 47.477
16 287 Schiffer, Marcus GER DMSB Suzuki 40:51.564 20 1:35.269 0:01.592 1:57.023 4 47.375
17 22 Strijbos, Kevin BEL FMB Suzuki 40:58.952 20 1:42.657 0:07.388 1:57.622 12 47.134
18 37 Krestinov, Gert EST EMF Kawasaki 41:03.447 20 1:47.152 0:04.495 1:57.356 8 47.241
19 74 Steinbergs, Ivo LAT LAMSF Kawasaki 41:14.762 20 1:58.467 0:11.315 1:58.346 3 46.846
20 49 Schmidinger, Günter AUT OeAMTC Honda 41:22.231 20 2:05.936 0:07.469 1:57.829 4 47.051
21 156 Freibergs, Lauris LAT LAMSF Honda 39:19.019 19 1 lap 1 lap 1:58.066 9 46.957
22 198 Bucas, Vytautas LTU LMSF Honda 40:03.082 19 1 lap 0:44.063 1:58.518 5 46.778
23 97 Tyletski, Evgeni BLR LAMSF KTM 40:11.911 19 1 lap 0:08.829 1:59.591 11 46.358
24 127 Eriksson, Toni FIN SML Kawasaki 40:15.047 19 1 lap 0:03.136 1:59.953 9 46.218
25 133 Apfelbaums, Niks LAT LAMSF Honda 40:55.327 19 1 lap 0:40.280 2:00.159 3 46.139
26 771 Gelazninkas, Arunas LTU LMSF Kawasaki 40:57.000 19 1 lap 0:01.673 2:02.023 4 45.434
27 52 Walkner, Matthias AUT OeAMTC KTM 36:05.106 17 3 laps 2 laps 1:58.850 3 46.647
28 7 Barragan, Jonathan ESP RFME Kawasaki 31:11.911 15 5 laps 2 laps 1:56.783 3 47.473
29 174 Kaurit, Ardo EST EMF KTM 17:44.186 8 12 laps 7 laps 2:01.019 8 45.811
30 115 Campano Jimenez, Carlos ESP RFME Yamaha 15:28.205 6 14 laps 2 laps 1:56.804 4 47.464
31 14 de Reuver, Marc NED KNMV Yamaha 1:23.618 0 20 laps 6 laps 0:00.000 0 0

2 ÈME MANCHE MX1

Holeshot de Cairoli.. Xavier Boog et Max Nagl ont chuté au premier virage..

MX1 – Grand Prix Race 2 – Classification
Pos Nr Rider Nat. Fed. Bike Time laps Diff. First Diff. Prev. Bestlaptime in lap Speed

1 222 Cairoli, Antonio ITA FMI KTM 40:14.909 20 0:00.000 0:00.000 1:55.134 12 48.153
2 183 Frossard, Steven FRA FFM Yamaha 40:20.881 20 0:05.972 0:05.972 1:55.840 13 47.859
3 777 Bobryshev, Evgeny RUS MFR Honda 40:32.034 20 0:17.125 0:11.153 1:56.143 7 47.734
4 999 Goncalves, Rui POR FMP Honda 40:35.090 20 0:20.181 0:03.056 1:55.425 8 48.031
5 19 Philippaerts, David ITA FMI Yamaha 40:39.299 20 0:24.390 0:04.209 1:55.385 11 48.048
6 11 Ramon, Steve BEL FMB Suzuki 40:40.348 20 0:25.439 0:01.049 1:56.122 4 47.743
7 6 Leok, Tanel EST EMF TM 40:42.177 20 0:27.268 0:01.829 1:55.774 8 47.886
8 25 Desalle, Clement BEL FMB Suzuki 40:54.768 20 0:39.859 0:12.591 1:56.626 7 47.537
9 9 de Dycker, Ken BEL FMB Honda 40:58.248 20 0:43.339 0:03.480 1:57.123 10 47.335
10 2 Nagl, Maximilian GER DMSB KTM 41:01.616 20 0:46.707 0:03.368 1:55.851 7 47.855
11 7 Barragan, Jonathan ESP RFME Kawasaki 41:07.053 20 0:52.144 0:05.437 1:57.398 5 47.224
12 39 Guarneri, Davide ITA FMI Kawasaki 41:16.951 20 1:02.042 0:09.898 1:56.720 10 47.498
13 10 Boissiere, Anthony FRA FFM Yamaha 41:28.024 20 1:13.115 0:11.073 1:57.959 2 46.999
14 115 Campano Jimenez, Carlos ESP RFME Yamaha 41:48.657 20 1:33.748 0:20.633 1:58.609 7 46.742
15 24 Simpson, Shaun GBR ACU Honda 41:53.854 20 1:38.945 0:05.197 1:59.250 8 46.491
16 287 Schiffer, Marcus GER DMSB Suzuki 42:06.724 20 1:51.815 0:12.870 2:00.307 7 46.082
17 52 Walkner, Matthias AUT OeAMTC KTM 42:07.324 20 1:52.415 0:00.600 2:00.136 19 46.148
18 14 de Reuver, Marc NED KNMV Yamaha 40:19.499 19 1 lap 1 lap 1:59.168 5 46.523
19 37 Krestinov, Gert EST EMF Kawasaki 40:21.704 19 1 lap 0:02.205 1:59.879 8 46.247
20 74 Steinbergs, Ivo LAT LAMSF Kawasaki 40:46.214 19 1 lap 0:24.510 2:01.656 3 45.571
21 156 Freibergs, Lauris LAT LAMSF Honda 40:52.944 19 1 lap 0:06.730 2:00.844 5 45.877
22 127 Eriksson, Toni FIN SML Kawasaki 41:17.402 19 1 lap 0:24.458 2:01.517 4 45.623
23 174 Kaurit, Ardo EST EMF KTM 42:02.937 19 1 lap 0:45.535 2:04.010 5 44.706
24 133 Apfelbaums, Niks LAT LAMSF Honda 41:53.576 18 2 laps 1 lap 2:04.921 2 44.38
25 121 Boog, Xavier FRA FFM Kawasaki 16:34.230 7 13 laps 11 laps 1:59.049 5 46.569
26 771 Gelazninkas, Arunas LTU LMSF Kawasaki 17:06.563 7 13 laps 0:32.333 2:05.074 2 44.326
27 22 Strijbos, Kevin BEL FMB Suzuki 13:32.487 6 14 laps 1 lap 1:59.904 6 46.237
28 20 Aranda, Gregory FRA FFM Kawasaki 13:38.028 6 14 laps 0:05.541 2:00.749 4 45.913
29 198 Bucas, Vytautas LTU LMSF Honda 11:58.978 4 16 laps 2 laps 2:13.871 3 41.413
30 97 Tyletski, Evgeni BLR LAMSF KTM 7:53.342 3 17 laps 1 lap 2:03.956 2 44.726

MX1 – GP Classification
Pos Nr Rider Nat. Fed. Bike Race 1 Race 2 Total

1 222 Cairoli, Antonio ITA FMI KTM 25 25 50
2 183 Frossard, Steven FRA FFM Yamaha 22 22 44
3 777 Bobryshev, Evgeny RUS MFR Honda 20 20 40
4 999 Goncalves, Rui POR FMP Honda 14 18 32
5 19 Philippaerts, David ITA FMI Yamaha 16 16 32
6 2 Nagl, Maximilian GER DMSB KTM 18 11 29
7 9 de Dycker, Ken BEL FMB Honda 15 12 27
8 11 Ramon, Steve BEL FMB Suzuki 11 15 26
9 25 Desalle, Clement BEL FMB Suzuki 13 13 26
10 6 Leok, Tanel EST EMF TM 9 14 23
11 39 Guarneri, Davide ITA FMI Kawasaki 10 9 19
12 10 Boissiere, Anthony FRA FFM Yamaha 8 8 16
13 24 Simpson, Shaun GBR ACU Honda 6 6 12
14 121 Boog, Xavier FRA FFM Kawasaki 12 0 12
15 7 Barragan, Jonathan ESP RFME Kawasaki 0 10 10
16 287 Schiffer, Marcus GER DMSB Suzuki 5 5 10
17 115 Campano Jimenez, Carlos ESP RFME Yamaha 0 7 7
18 20 Aranda, Gregory FRA FFM Kawasaki 7 0 7
19 37 Krestinov, Gert EST EMF Kawasaki 3 2 5
20 52 Walkner, Matthias AUT OeAMTC KTM 0 4 4
21 22 Strijbos, Kevin BEL FMB Suzuki 4 0 4
22 14 de Reuver, Marc NED KNMV Yamaha 0 3 3..

MX1 – World Championship Classification
Pos Nr Rider Nat. Total BUL NED USA BRA FRA POR ESP SWE GER LAT BEL CZE GBR EUR ITA

1 222 Cairoli, A. ITA 416 14-11 25-22 22-10 25-22 22-20 22-22 22-25 16-22 22-22 25-25 - - - - - - - - - -
2 25 Desalle, C. BEL 374 22-25 16-15 25-25 18-18 10-25 25-25 16-20 13-14 16-20 13-13 - - - - - - - - - -
3 183 Frossard, S. FRA 370 25-22 22-16 11-0 20-16 25-22 20-14 25-12 25-25 20-6 22-22 - - - - - - - - - -
4 777 Bobryshev, E. RUS 334 9-18 11-14 15-20 13-10 15-16 18-18 13-14 22-18 25-25 20-20 - - - - - - - - - -
5 2 Nagl, M. GER 311 20-15 20-25 20-22 16-15 14-12 13-0 18-15 14-11 18-14 18-11 - - - - - - - - - -
6 19 Philippaerts, D. ITA 282 18-7 18-20 16-12 22-25 20-3 0-0 20-18 6-20 12-13 16-16 - - - - - - - - - -
7 999 Goncalves, Rui POR 281 13-16 15-18 9-18 11-8 7-18 14-20 14-11 12-13 14-18 14-18 - - - - - - - - - -
8 11 Ramon, Steve BEL 229 11-9 13-9 0-14 14-20 9-4 6-16 15-9 15-16 11-12 11-15 - - - - - - - - - -
9 9 de Dycker, Ken BEL 228 0-4 14-13 0-1 15-11 16-13 15-15 10-10 18-15 15-16 15-12 - - - - - - - - - -
10 121 Boog, Xavier FRA 215 10-13 4-7 7-11 12-13 18-14 16-12 11-13 20-10 8-4 12-0 - - - - - - - - - -
11 7 Barragan, J. ESP 214 15-20 7-11 12-13 4-12 6-15 8-13 12-16 0-12 13-15 0-10 - - - - - - - - - -
12 6 Leok, Tanel EST 169 0-12 12-12 6-6 2-9 11-11 11-11 8-22 7-0 6-0 9-14 - - - - - - - - - -
13 22 Strijbos, K. BEL 165 12-14 5-3 18-16 10-14 12-10 10-10 4-5 9-9 0-0 4-0 - - - - - - - - - -
14 10 Boissiere, A. FRA 135 6-8 6-8 14-9 9-0 5-8 0-8 7-8 10-6 0-7 8-8 - - - - - - - - - -
15 24 Simpson, Shaun GBR 125 8-5 1-4 5-15 8-3 8-9 9-9 5-0 0-5 10-9 6-6 - - - - - - - - - -
16 39 Guarneri, D. ITA 122 16-10 9-10 8-5 - - 2-5 12-0 9-0 0-8 9-0 10-9 - - - - - - - - - -
17 20 Aranda, G. FRA 61 - - - - 4-7 7-5 0-7 0-0 - - 11-0 5-8 7-0 - - - - - - - - - -
18 287 Schiffer, M. GER 55 0-0 0-0 - - - - 0-0 7-6 6-7 8-7 4-0 5-5 - - - - - - - - - -
19 115 Campano Jimenez, C. ESP 52 5-6 0-0 3-2 0-0 - - 4-7 3-6 5-3 0-1 0-7 - - - - - - - - - -
20 14 de Reuver, M. NED 44 3-0 10-0 0-0 3-7 - - 0-0 - - - - 7-11 0-3 - - - - - - - - - -..

MX2 – Pre-Qualifying Practice – Classification
Pos Nr Rider Nat. Fed. Bike Bestlaptime in lap Diff. First Diff. Prev. Tot. Laps Speed
1 21 Paulin, Gautier FRA MCM Yamaha 1:47.537 3 0:00.000 0:00.000 9 51.554

2 84 Herlings, Jeffrey NED KNMV KTM 1:48.162 7 0:00.625 0:00.625 9 51.256
3 430 Charlier, Christophe FRA FFM Yamaha 1:48.617 6 0:01.080 0:00.455 12 51.042
4 7 Tonus, Arnaud SUI FMS Yamaha 1:48.660 5 0:01.123 0:00.043 7 51.022

5 100 Searle, Tommy GBR ACU Kawasaki 1:49.057 2 0:01.520 0:00.397 9 50.836
6 94 Roczen, Ken GER DMSB KTM 1:49.134 9 0:01.597 0:00.077 11 50.8
7 37 Teillet, Valentin FRA FFM Suzuki 1:49.143 5 0:01.606 0:00.009 8 50.796
8 89 van Horebeek, Jeremy BEL FMB KTM 1:49.237 3 0:01.700 0:00.094 10 50.752
9 151 Kullas, Harri FIN SML Yamaha 1:49.362 2 0:01.825 0:00.125 11 50.694
10 131 Aubin, Nicolas FRA FFM KTM 1:49.452 7 0:01.915 0:00.090 11 50.652
11 17 Butron Oliva, Antonio Jose ESP RFME KTM 1:50.001 2 0:02.464 0:00.549 12 50.4
12 338 Osborne, Zachary USA ACU Yamaha 1:50.006 8 0:02.469 0:00.005 11 50.397
13 99 Anstie, Max GBR AMA Kawasaki 1:50.438 3 0:02.901 0:00.432 12 50.2
14 91 Karro, Matiss LAT LAMSF Honda 1:50.815 4 0:03.278 0:00.377 11 50.029
15 45 Nicholls, Jake GBR ACU KTM 1:51.185 2 0:03.648 0:00.370 12 49.863
16 152 Petrov, Petar BUL BMF Yamaha 1:51.281 3 0:03.744 0:00.096 11 49.82
17 911 Tixier, Jordi FRA FFM KTM 1:51.585 5 0:04.048 0:00.304 14 49.684
18 77 Lupino, Alessandro ITA FMI Husqvarna 1:52.272 9 0:04.735 0:00.687 11 49.38
19 590 Triest, Nick BEL FMB KTM 1:52.318 4 0:04.781 0:00.046 13 49.36
20 55 Kras, Mike NED KNMV Suzuki 1:52.840 3 0:05.303 0:00.522 12 49.132
21 170 Leib, Michael USA FSM Husqvarna 1:52.954 5 0:05.417 0:00.114 12 49.082
22 195 Justs, Roberts LAT LAMSF Honda 1:53.495 3 0:05.958 0:00.541 10 48.848
23 777 Zanoni, Swian BRA FMI Honda 1:53.822 5 0:06.285 0:00.327 11 48.708
24 76 Rauchenecker, Pascal AUT OeAMTC KTM 1:53.858 10 0:06.321 0:00.036 12 48.692
25 388 Söderberg, Ludvig FIN SML Kawasaki 1:53.903 12 0:06.366 0:00.045 12 48.673
26 112 Heibye, Even NOR NMF KTM 1:53.997 4 0:06.460 0:00.094 13 48.633
27 600 Ivanovs, Davis LAT LAMSF Kawasaki 1:54.002 7 0:06.465 0:00.005 11 48.631
28 102 Smitka, Petr CZE ACCR TM 1:54.227 5 0:06.690 0:00.225 10 48.535
29 128 Monticelli, Ivo ITA FMI Honda 1:54.835 4 0:07.298 0:00.608 11 48.278
30 33 Lieber, Julien BEL MUL KTM 1:55.183 5 0:07.646 0:00.348 11 48.132
31 114 Booker, Jordan GBR ACU KTM 1:55.215 9 0:07.678 0:00.032 12 48.119
32 262 Del Segato, Giacomo ITA FMI KTM 1:56.050 4 0:08.513 0:00.835 7 47.773
33 300 Golovkin, Viacheslav RUS LAMSF Kawasaki 1:56.277 11 0:08.740 0:00.227 12 47.679
34 111 Rukstela, Nerijus LTU LMSF Suzuki 1:57.163 9 0:09.626 0:00.886 12 47.319
35 611 Cociu, Mihail MDA FRM Honda 1:57.760 4 0:10.223 0:00.597 11 47.079

MANCHE QUALIFICATIVE MX2

Holeshot de Ken Roczen et chute de Zach Osborne au départ.. Jeffrey Herlings est au départ malgré une très lourde chute durant les essais qui l’a laissé quelque peu K.O..

MX2 – Qualifying Race – Classification
Pos Nr Rider Nat. Fed. Bike Time laps Diff. First Diff. Prev. Bestlaptime in lap Speed

1 94 Roczen, Ken GER DMSB KTM 25:16.978 13 0:00.000 0:00.000 1:49.563 3 50.601
2 84 Herlings, Jeffrey NED KNMV KTM 25:18.622 13 0:01.644 0:01.644 1:49.939 8 50.428
3 21 Paulin, Gautier FRA MCM Yamaha 25:23.893 13 0:06.915 0:05.271 1:49.957 3 50.42
4 99 Anstie, Max GBR AMA Kawasaki 25:38.020 13 0:21.042 0:14.127 1:51.647 6 49.657
5 100 Searle, Tommy GBR ACU Kawasaki 25:42.843 13 0:25.865 0:04.823 1:50.859 4 50.009
6 430 Charlier, Christophe FRA FFM Yamaha 25:49.104 13 0:32.126 0:06.261 1:51.074 1 49.913
7 131 Aubin, Nicolas FRA FFM KTM 26:05.717 13 0:48.739 0:16.613 1:51.884 3 49.551
8 37 Teillet, Valentin FRA FFM Suzuki 26:10.923 13 0:53.945 0:05.206 1:53.175 2 48.986

9 17 Butron Oliva, Antonio Jose ESP RFME KTM 26:15.281 13 0:58.303 0:04.358 1:54.137 9
10 7 Tonus, Arnaud SUI FMS Yamaha 26:20.708 13 1:03.730 0:05.427 1:53.552 2 48.823
11 89 van Horebeek, Jeremy BEL FMB KTM 26:22.970 13 1:05.992 0:02.262 1:53.623 2 48.793
12 152 Petrov, Petar BUL BMF Yamaha 26:25.252 13 1:08.274 0:02.282 1:55.103 12 48.166
13 151 Kullas, Harri FIN SML Yamaha 26:27.325 13 1:10.347 0:02.073 1:54.109 11 48.585
14 45 Nicholls, Jake GBR ACU KTM 26:28.954 13 1:11.976 0:01.629 1:54.160 8 48.563
15 77 Lupino, Alessandro ITA FMI Husqvarna 26:31.176 13 1:14.198 0:02.222 1:54.626 13 48.366
16 91 Karro, Matiss LAT LAMSF Honda 26:33.888 13 1:16.910 0:02.712 1:54.395 12 48.464
17 911 Tixier, Jordi FRA FFM KTM 26:41.118 13 1:24.140 0:07.230 1:54.825 8 48.282
18 170 Leib, Michael USA FSM Husqvarna 26:45.008 13 1:28.030 0:03.890 1:55.214 11 48.119
19 112 Heibye, Even NOR NMF KTM 26:47.639 13 1:30.661 0:02.631 1:55.499 5 48
20 55 Kras, Mike NED KNMV Suzuki 26:48.732 13 1:31.754 0:01.093 1:56.486 11 47.594
21 777 Zanoni, Swian BRA FMI Honda 26:51.109 13 1:34.131 0:02.377 1:56.213 2 47.706
22 338 Osborne, Zachary USA ACU Yamaha 26:51.508 13 1:34.530 0:00.399 1:53.622 1 48.793
23 600 Ivanovs, Davis LAT LAMSF Kawasaki 26:53.024 13 1:36.046 0:01.516 1:56.018 5 47.786
24 388 Söderberg, Ludvig FIN SML Kawasaki 27:15.508 13 1:58.530 0:22.484 1:57.433 4 47.21
25 102 Smitka, Petr CZE ACCR TM 25:18.944 12 1 lap 1 lap 1:58.204 8 46.902
26 114 Booker, Jordan GBR ACU KTM 25:25.603 12 1 lap 0:06.659 1:58.536 6 46.771
27 128 Monticelli, Ivo ITA FMI Honda 25:26.779 12 1 lap 0:01.176 1:57.529 2 47.171
28 76 Rauchenecker, Pascal AUT OeAMTC KTM 25:28.933 12 1 lap 0:02.154 1:57.844 6 47.045
29 195 Justs, Roberts LAT LAMSF Honda 25:29.981 12 1 lap 0:01.048 1:58.977 2 46.597
30 611 Cociu, Mihail MDA FRM Honda 25:50.242 12 1 lap 0:20.261 1:59.995 2 46.202
31 111 Rukstela, Nerijus LTU LMSF Suzuki 25:54.690 12 1 lap 0:04.448 1:59.860 2 46.254
32 300 Golovkin, Viacheslav RUS LAMSF Kawasaki 26:03.374 12 1 lap 0:08.684 2:00.729 2 45.921
33 33 Lieber, Julien BEL MUL KTM 13:27.534 6 7 laps 6 laps 1:58.314 4 46.858

DIMANCHE – 1 ÈRE MANCHE MX2

Holeshot de Ken Roczen, chute d’Herlings au premier virage et chute de Paulin quelques mètres plus loin et repart dernier.. Christophe Charlier chutera quelques tours plus tard à l’apple d’un saut, il semble blessé à l’épaule droite.. Gautier Paulin va alors entamer une remontée de folie..

MX2 – Grand Prix Race 1 – Classification
Pos Nr Rider Nat. Fed. Bike Time laps Diff. First Diff. Prev. Bestlaptime in lap Speed

1 94 Roczen, Ken GER DMSB KTM 39:00.838 20 0:00.000 0:00.000 1:50.979 1 49.955
2 100 Searle, Tommy GBR ACU Kawasaki 39:11.833 20 0:10.995 0:10.995 1:51.686 5 49.639
3 84 Herlings, Jeffrey NED KNMV KTM 39:16.988 20 0:16.150 0:05.155 1:51.577 5 49.688
4 7 Tonus, Arnaud SUI FMS Yamaha 39:21.256 20 0:20.418 0:04.268 1:52.076 3 49.466
5 99 Anstie, Max GBR AMA Kawasaki 39:27.334 20 0:26.496 0:06.078 1:52.437 5 49.308
6 131 Aubin, Nicolas FRA FFM KTM 39:37.910 20 0:37.072 0:10.576 1:52.138 2 49.439
7 338 Osborne, Zachary USA ACU Yamaha 39:39.956 20 0:39.118 0:02.046 1:53.906 10 48.672
8 21 Paulin, Gautier FRA MCM Yamaha 39:41.040 20 0:40.202 0:01.084 1:48.753 1 50.978
9 151 Kullas, Harri FIN SML Yamaha 39:42.446 20 0:41.608 0:01.406 1:54.118 2 48.581
10 37 Teillet, Valentin FRA FFM Suzuki 40:03.070 20 1:02.232 0:20.624 1:54.135 4 48.574
11 17 Butron Oliva, Antonio Jose ESP RFME KTM 40:16.602 20 1:15.764 0:13.532 1:54.885 3 48.257
12 45 Nicholls, Jake GBR ACU KTM 40:20.390 20 1:19.552 0:03.788 1:55.298 8 48.084
13 911 Tixier, Jordi FRA FFM KTM 40:32.536 20 1:31.698 0:12.146 1:55.764 6 47.891
14 152 Petrov, Petar BUL BMF Yamaha 40:37.030 20 1:36.192 0:04.494 1:56.152 4 47.731
15 91 Karro, Matiss LAT LAMSF Honda 40:39.210 20 1:38.372 0:02.180 1:55.787 1 47.881
16 77 Lupino, Alessandro ITA FMI Husqvarna 40:42.395 20 1:41.557 0:03.185 1:56.546 4 47.569
17 170 Leib, Michael USA FSM Husqvarna 40:42.838 20 1:42.000 0:00.443 1:55.748 15 47.897
18 590 Triest, Nick BEL FMB KTM 41:09.138 20 2:08.300 0:26.300 1:55.920 3 47.826
19 55 Kras, Mike NED KNMV Suzuki 39:10.239 19 1 lap 1 lap 1:56.695 6 47.508
20 388 Söderberg, Ludvig FIN SML Kawasaki 39:18.944 19 1 lap 0:08.705 1:57.689 9 47.107
21 777 Zanoni, Swian BRA FMI Honda 39:31.435 19 1 lap 0:12.491 1:57.939 8 47.007
22 114 Booker, Jordan GBR ACU KTM 39:48.930 19 1 lap 0:17.495 1:59.516 7 46.387
23 76 Rauchenecker, Pascal AUT OeAMTC KTM 39:51.910 19 1 lap 0:02.980 1:58.212 2 46.899
24 102 Smitka, Petr CZE ACCR TM 39:59.298 19 1 lap 0:07.388 1:58.543 5 46.768
25 33 Lieber, Julien BEL MUL KTM 40:05.540 19 1 lap 0:06.242 1:57.882 6 47.03
26 195 Justs, Roberts LAT LAMSF Honda 40:11.664 19 1 lap 0:06.124 1:58.486 4 46.79
27 300 Golovkin, Viacheslav RUS LAMSF Kawasaki 40:12.600 19 1 lap 0:00.936 2:00.700 2 45.932
28 128 Monticelli, Ivo ITA FMI Honda 40:15.183 19 1 lap 0:02.583 1:58.406 5 46.822
29 611 Cociu, Mihail MDA FRM Honda 40:01.698 17 3 laps 2 laps 2:04.160 11 44.652
30 600 Ivanovs, Davis LAT LAMSF Kawasaki 29:28.731 14 6 laps 3 laps 1:56.867 3 47.439
31 430 Charlier, Christophe FRA FFM Yamaha 3:18.160 1 19 laps 13 laps 1:56.378 1 47.638
32 111 Rukstela, Nerijus LTU LMSF Suzuki 3:30.181 1 19 laps 0:12.021 2:02.944 1 45.094
33 112 Heibye, Even NOR NMF KTM 0:00.000 0 20 laps 1 lap 0:00.000 0 0

2 ÈME MANCHE MX2

Holeshot de Ken Roczen.. Gautier Paulin va aller à la faute dans les tous premiers tours et repartira loin.. Jeffrey Herlings prend le dessus sur Roczern à 28 min.. Roczen va reprendre la tête de course à 17 min de la fin de manche.. À 13 min de la fin de manche Arnaud Tonus rentre aux stands roue arrière cassée.. Il repartira plus tard.. Jeffrey Herlings va chuter à 10 min de la fin de manche.. Nicolas Aubin va commettre une erreur dans l’approche du dernier tour..

MX2 – Grand Prix Race 2 – Classification
Pos Nr Rider Nat. Fed. Bike Time laps Diff. First Diff. Prev. Bestlaptime in lap Speed

1 94 Roczen, Ken GER DMSB KTM 40:24.762 20 0:00.000 0:00.000 1:54.040 8 48.615
2 84 Herlings, Jeffrey NED KNMV KTM 40:38.709 20 0:13.947 0:13.947 1:54.448 4 48.441
3 100 Searle, Tommy GBR ACU Kawasaki 40:43.474 20 0:18.712 0:04.765 1:56.319 8 47.662
4 99 Anstie, Max GBR AMA Kawasaki 40:43.844 20 0:19.082 0:00.370 1:56.833 20 47.452
5 338 Osborne, Zachary USA ACU Yamaha 41:02.356 20 0:37.594 0:18.512 1:57.012 6 47.38
6 151 Kullas, Harri FIN SML Yamaha 41:17.158 20 0:52.396 0:14.802 1:57.510 3 47.179
7 37 Teillet, Valentin FRA FFM Suzuki 41:25.156 20 1:00.394 0:07.998 1:56.088 2 47.757
8 45 Nicholls, Jake GBR ACU KTM 41:39.053 20 1:14.291 0:13.897 1:57.432 4 47.21
9 91 Karro, Matiss LAT LAMSF Honda 41:41.031 20 1:16.269 0:01.978 1:57.677 2 47.112
10 21 Paulin, Gautier FRA MCM Yamaha 41:42.509 20 1:17.747 0:01.478 1:57.435 3 47.209
11 77 Lupino, Alessandro ITA FMI Husqvarna 41:43.290 20 1:18.528 0:00.781 1:58.498 20 46.786
12 152 Petrov, Petar BUL BMF Yamaha 42:11.895 20 1:47.133 0:28.605 1:59.715 5 46.31
13 911 Tixier, Jordi FRA FFM KTM 42:18.518 20 1:53.756 0:06.623 2:00.673 5 45.942
14 388 Söderberg, Ludvig FIN SML Kawasaki 42:26.383 20 2:01.621 0:07.865 2:00.901 5 45.856
15 112 Heibye, Even NOR NMF KTM 40:27.651 19 1 lap 1 lap 2:00.837 6 45.88
16 55 Kras, Mike NED KNMV Suzuki 40:54.797 19 1 lap 0:27.146 2:02.008 5 45.44
17 102 Smitka, Petr CZE ACCR TM 40:59.802 19 1 lap 0:05.005 2:01.988 4 45.447
18 114 Booker, Jordan GBR ACU KTM 41:04.854 19 1 lap 0:05.052 2:03.177 5 45.008
19 33 Lieber, Julien BEL MUL KTM 41:07.420 19 1 lap 0:02.566 1:52.781 18 49.157
20 195 Justs, Roberts LAT LAMSF Honda 41:37.165 19 1 lap 0:29.745 2:03.548 4 44.873
21 76 Rauchenecker, Pascal AUT OeAMTC KTM 42:01.145 19 1 lap 0:23.980 2:05.810 2 44.066
22 131 Aubin, Nicolas FRA FFM KTM 43:08.973 19 1 lap 1:07.828 1:58.385 16 46.83
23 128 Monticelli, Ivo ITA FMI Honda 40:58.715 18 2 laps 1 lap 2:02.505 5 45.255
24 611 Cociu, Mihail MDA FRM Honda 41:12.872 18 2 laps 0:14.157 2:06.158 4 43.945
25 111 Rukstela, Nerijus LTU LMSF Suzuki 41:22.849 18 2 laps 0:09.977 2:08.274 4 43.22
26 300 Golovkin, Viacheslav RUS LAMSF Kawasaki 42:04.569 18 2 laps 0:41.720 2:05.602 2 44.139
27 777 Zanoni, Swian BRA FMI Honda 34:31.605 16 4 laps 2 laps 2:02.535 7 45.244
28 7 Tonus, Arnaud SUI FMS Yamaha 31:15.533 14 6 laps 2 laps 1:56.504 5 47.586
29 590 Triest, Nick BEL FMB KTM 19:32.322 9 11 laps 5 laps 1:59.261 5 46.486
30 170 Leib, Michael USA FSM Husqvarna 16:30.342 7 13 laps 2 laps 1:58.810 5 46.663
31 17 Butron Oliva, Antonio Jose ESP RFME KTM 7:10.557 3 17 laps 4 laps 1:57.511 2 47.179
32 600 Ivanovs, Davis LAT LAMSF Kawasaki 8:55.469 3 17 laps 1:44.912 2:00.612 1 45.966

MX2 – GP Classification
Pos Nr Rider Nat. Fed. Bike Race 1 Race 2 Total

1 94 Roczen, Ken GER DMSB KTM 25 25 50
2 84 Herlings, Jeffrey NED KNMV KTM 20 22 42
3 100 Searle, Tommy GBR ACU Kawasaki 22 20 42
4 99 Anstie, Max GBR AMA Kawasaki 16 18 34
5 338 Osborne, Zachary USA ACU Yamaha 14 16 30
6 151 Kullas, Harri FIN SML Yamaha 12 15 27
7 37 Teillet, Valentin FRA FFM Suzuki 11 14 25
8 21 Paulin, Gautier FRA MCM Yamaha 13 11 24

9 45 Nicholls, Jake GBR ACU KTM 9 13 22
10 91 Karro, Matiss LAT LAMSF Honda 6 12 18
11 7 Tonus, Arnaud SUI FMS Yamaha 18 0 18
12 152 Petrov, Petar BUL BMF Yamaha 7 9 16
13 911 Tixier, Jordi FRA FFM KTM 8 8 16
14 77 Lupino, Alessandro ITA FMI Husqvarna 5 10 15
15 131 Aubin, Nicolas FRA FFM KTM 15 0 15
16 17 Butron Oliva, Antonio Jose ESP RFME KTM 10 0 10
17 388 Söderberg, Ludvig FIN SML Kawasaki 1 7 8
18 55 Kras, Mike NED KNMV Suzuki 2 5 7
19 112 Heibye, Even NOR NMF KTM 0 6 6
20 102 Smitka, Petr CZE ACCR TM 0 4 4
21 170 Leib, Michael USA FSM Husqvarna 4 0 4
22 114 Booker, Jordan GBR ACU KTM 0 3 3
23 590 Triest, Nick BEL FMB KTM 3 0 3
24 33 Lieber, Julien BEL MUL KTM 0 2 2
25 195 Justs, Roberts LAT LAMSF Honda 0 1 1
26 76 Rauchenecker, Pascal AUT OeAMTC KTM 0 0 0
27 128 Monticelli, Ivo ITA FMI Honda 0 0 0
28 611 Cociu, Mihail MDA FRM Honda 0 0 0
29 111 Rukstela, Nerijus LTU LMSF Suzuki 0 0 0
30 300 Golovkin, Viacheslav RUS LAMSF Kawasaki 0 0 0
31 777 Zanoni, Swian BRA FMI Honda 0 0 0
32 600 Ivanovs, Davis LAT LAMSF Kawasaki 0 0 0
33 430 Charlier, Christophe FRA FFM Yamaha 0 0 0

MX2 – World Championship Classification
Pos Nr Rider Nat. Total BUL NED USA BRA FRA POR ESP SWE GER LAT BEL CZE GBR EUR ITA

1 94 Roczen, Ken GER 446 25-25 22-22 25-25 25-22 25-10 25-0 25-25 25-25 25-20 25-25 - - - - - - - - - -
2 84 Herlings, J. NED 419 16-20 25-25 22-22 22-25 14-22 22-22 20-18 20-22 22-18 20-22 - - - - - - - - - -
3 100 Searle, Tommy GBR 370 22-22 20-20 16-20 18-18 18-25 0-25 22-22 0-18 20-22 22-20 - - - - - - - - - -
4 21 Paulin, G. FRA 343 20-14 16-15 15-0 20-20 22-18 16-20 18-20 22-20 18-25 13-11 - - - - - - - - - -
5 338 Osborne, Z. USA 295 14-18 15-13 12-18 16-16 20-20 20-16 0-15 10-11 16-15 14-16 - - - - - - - - - -
6 7 Tonus, Arnaud SUI 274 18-13 18-18 14-0 14-13 16-14 10-18 15-16 15-13 15-16 18-0 - - - - - - - - - -
7 99 Anstie, Max GBR 249 13-15 11-12 20-16 15-14 4-15 18-14 0-0 18-16 3-11 16-18 - - - - - - - - - -
8 151 Kullas, Harri FIN 224 11-7 14-14 18-10 10-12 11-12 11-12 11-11 5-10 8-10 12-15 - - - - - - - - - -
9 131 Aubin, Nicolas FRA 207 12-12 12-0 9-14 7-7 15-16 5-13 16-13 12-15 14-0 15-0 - - - - - - - - - -
10 430 Charlier, C. FRA 170 7-11 7-11 13-13 12-15 0-13 13-15 - - 14-14 12-0 0-0 - - - - - - - - - -

11 34 Roelants, Joel BEL 166 10-9 13-16 7-12 13-10 13-11 15-9 14-14 0-0 - - - - - - - - - - - - - -
12 77 Lupino, A. ITA 121 1-10 0-3 6-7 9-4 0-7 9-6 8-9 9-5 4-9 5-10 - - - - - - - - - -
13 911 Tixier, Jordi FRA 115 8-3 3-6 8-11 11-11 9-0 0-1 4-8 0-8 5-3 8-8 - - - - - - - - - -
14 45 Nicholls, Jake GBR 114 - - - - - - - - 10-8 8-10 7-10 13-0 13-13 9-13 - - - - - - - - - -
15 17 Butron Oliva, A. ESP 94 4-2 8-7 - - - - 7-1 12-11 10-0 0-0 10-12 10-0 - - - - - - - - - -
16 25 Coldenhoff, G. NED 90 6-8 9-8 - - - - 8-6 14-7 12-12 0-0 - - - - - - - - - - - - - -
17 152 Petrov, Petar BUL 86 3-0 0-10 10-3 5-0 0-3 6-4 6-0 7-7 6-0 7-9 - - - - - - - - - -
18 590 Triest, Nick BEL 80 0-4 0-4 - - - - 5-9 7-8 13-6 6-6 9-0 3-0 - - - - - - - - - -
19 37 Teillet, V. FRA 70 0-0 - - - - - - - - - - - - 11-9 11-14 11-14 - - - - - - - - - -
20 76 Rauchenecker, P. AUT 63 5-5 4-0 3-8 8-9 6-4 0-0 0-3 0-0 2-6 0-0 - - - - - - - - - -..

(Photos : KTM/Ray Archer)

A voir aussi :

Le commentaires sont fermés.